Time;durP1;ratioP1;P1;durP2;ratioP2;P2;SDS_P1;SDS_P2;PMS_P1;PMS_P2;Temp;Humidity;BMP_temperature;BMP_pressure;BME280_temperature;BME280_humidity;BME280_pressure;Samples;Min_cycle;Max_cycle;Signal;HPM_P1;HPM_P2
2021/11/22 00:00:40;;;;;;;83.90;44.90;;;;;;;5.68;85.49;100042.81;86777;1298;87878;-73
2021/11/22 00:02:53;;;;;;;57.90;31.10;;;;;;;5.69;85.62;100046.59;86566;1305;95695;-72
2021/11/22 00:04:59;;;;;;;82.30;40.90;;;;;;;5.70;85.61;100049.61;86781;1302;79559;-71
2021/11/22 00:07:07;;;;;;;87.20;49.40;;;;;;;5.69;85.71;100051.44;86762;1301;80301;-71
2021/11/22 00:09:13;;;;;;;64.00;40.20;;;;;;;5.67;85.69;100048.83;86770;1301;98942;-72
2021/11/22 00:11:21;;;;;;;46.80;29.60;;;;;;;5.66;85.58;100047.52;86785;1301;88518;-71
2021/11/22 00:13:27;;;;;;;41.20;28.20;;;;;;;5.68;85.75;100048.23;86553;1304;94972;-70
2021/11/22 00:15:34;;;;;;;39.80;27.50;;;;;;;5.69;85.74;100049.10;86755;1300;80069;-71
2021/11/22 00:17:41;;;;;;;41.90;30.70;;;;;;;5.71;85.78;100050.13;86795;1301;82258;-71
2021/11/22 00:19:48;;;;;;;43.70;33.50;;;;;;;5.71;85.61;100048.40;86798;1302;99304;-70
2021/11/22 00:21:58;;;;;;;43.30;30.60;;;;;;;5.66;85.63;100051.21;86813;1296;86489;-71
2021/11/22 00:24:06;;;;;;;39.30;28.30;;;;;;;5.62;85.85;100058.51;86821;1301;95700;-72
2021/11/22 00:26:13;;;;;;;35.70;26.90;;;;;;;5.62;85.85;100058.54;86741;1302;80985;-64
2021/11/22 00:28:20;;;;;;;33.60;23.60;;;;;;;5.59;86.02;100059.91;86777;1301;82545;-64
2021/11/22 00:30:26;;;;;;;25.40;19.50;;;;;;;5.59;85.79;100060.58;88554;1277;99930;-62
2021/11/22 00:32:34;;;;;;;25.90;16.90;;;;;;;5.57;85.71;100064.77;87098;1299;86778;-63
2021/11/22 00:34:44;;;;;;;24.60;15.50;;;;;;;5.58;85.65;100062.55;87029;1299;95357;-62
2021/11/22 00:36:51;;;;;;;29.80;19.40;;;;;;;5.57;85.60;100066.02;86920;1302;82128;-62
2021/11/22 00:38:58;;;;;;;35.70;22.00;;;;;;;5.57;85.57;100066.88;86919;1298;82704;-63
2021/11/22 00:41:05;;;;;;;32.10;20.60;;;;;;;5.57;85.46;100068.84;86908;1299;97541;-63
2021/11/22 00:43:12;;;;;;;30.40;18.90;;;;;;;5.56;85.56;100069.86;86924;1304;89018;-63
2021/11/22 00:45:20;;;;;;;42.80;24.80;;;;;;;5.55;85.70;100071.27;86974;1274;93894;-70
2021/11/22 00:47:26;;;;;;;36.60;23.70;;;;;;;5.52;85.67;100075.44;86881;1295;82645;-71
2021/11/22 00:49:34;;;;;;;42.00;25.90;;;;;;;5.52;85.78;100076.70;87018;1299;80152;-70
2021/11/22 00:51:40;;;;;;;37.90;24.20;;;;;;;5.54;85.54;100081.04;86973;1299;98821;-70
2021/11/22 00:53:47;;;;;;;45.40;26.60;;;;;;;5.50;85.66;100082.16;86980;1299;87870;-71
2021/11/22 00:55:54;;;;;;;38.10;24.90;;;;;;;5.52;85.62;100084.20;86926;1298;95001;-64
2021/11/22 00:58:01;;;;;;;40.10;24.70;;;;;;;5.49;85.71;100081.66;86905;1298;82167;-63
2021/11/22 01:00:13;;;;;;;41.10;24.40;;;;;;;5.49;85.61;100080.45;87061;1272;82216;-62
2021/11/22 01:02:19;;;;;;;38.20;23.60;;;;;;;5.51;85.71;100080.93;87148;1294;98189;-64
2021/11/22 01:04:25;;;;;;;34.60;22.30;;;;;;;5.52;85.79;100081.16;87142;1299;89168;-64
2021/11/22 01:06:32;;;;;;;33.70;21.70;;;;;;;5.50;85.70;100084.48;87125;1299;95374;-64
2021/11/22 01:08:38;;;;;;;36.20;22.80;;;;;;;5.45;85.69;100085.23;87123;1299;81185;-63
2021/11/22 01:10:44;;;;;;;32.30;22.10;;;;;;;5.38;85.82;100088.03;87147;1298;81204;-70
2021/11/22 01:12:52;;;;;;;35.00;21.90;;;;;;;5.36;85.77;100093.65;86973;1299;98755;-70
2021/11/22 01:15:01;;;;;;;35.60;21.10;;;;;;;5.33;85.72;100101.10;86915;1299;87979;-71
2021/11/22 01:17:08;;;;;;;28.60;18.50;;;;;;;5.31;85.76;100104.89;87056;1274;95882;-72
2021/11/22 01:19:15;;;;;;;28.10;19.60;;;;;;;5.26;86.11;100103.96;87065;1301;81400;-71
2021/11/22 01:21:22;;;;;;;31.40;19.90;;;;;;;5.27;85.96;100112.73;87124;1298;82303;-71
2021/11/22 01:23:29;;;;;;;25.50;16.60;;;;;;;5.30;85.97;100110.31;86979;1299;99869;-63
2021/11/22 01:25:36;;;;;;;20.50;13.50;;;;;;;5.34;86.14;100115.25;87081;1299;88939;-70
2021/11/22 01:27:42;;;;;;;18.50;12.90;;;;;;;5.34;86.11;100120.20;86977;1304;95793;-70
2021/11/22 01:29:48;;;;;;;19.10;12.30;;;;;;;5.35;86.27;100122.61;86971;1298;82018;-72
2021/11/22 01:31:55;;;;;;;18.70;12.30;;;;;;;5.38;86.25;100124.16;86984;1294;79710;-64
2021/11/22 01:34:02;;;;;;;16.20;12.00;;;;;;;5.40;86.21;100119.44;86971;1299;98949;-63
2021/11/22 01:36:08;;;;;;;17.90;11.80;;;;;;;5.37;86.45;100119.20;86982;1302;87519;-62
2021/11/22 01:38:16;;;;;;;18.80;12.30;;;;;;;5.35;86.45;100120.30;86985;1299;93237;-70
2021/11/22 01:40:25;;;;;;;18.90;12.40;;;;;;;5.42;86.40;100116.77;86971;1298;81390;-72
2021/11/22 01:42:31;;;;;;;18.40;11.90;;;;;;;5.49;86.38;100119.64;87011;1299;82177;-71
2021/11/22 01:44:38;;;;;;;18.50;12.70;;;;;;;5.53;86.34;100120.41;87036;1281;97927;-64
2021/11/22 01:46:48;;;;;;;17.90;12.50;;;;;;;5.55;86.27;100127.29;86903;1298;89242;-63
2021/11/22 01:48:56;;;;;;;20.10;13.20;;;;;;;5.55;86.42;100128.52;86856;1298;95310;-71
2021/11/22 01:51:03;;;;;;;25.60;15.80;;;;;;;5.60;86.48;100136.08;86906;1298;81805;-71
2021/11/22 01:53:15;;;;;;;20.70;13.40;;;;;;;5.66;86.45;100132.20;87053;1276;81670;-64
2021/11/22 01:55:24;;;;;;;20.80;12.50;;;;;;;5.69;86.31;100132.20;86961;1299;98492;-63
2021/11/22 01:57:30;;;;;;;19.90;13.10;;;;;;;5.70;86.63;100130.88;86905;1299;89041;-64
2021/11/22 01:59:36;;;;;;;18.00;10.80;;;;;;;5.69;86.45;100132.41;86901;1299;93366;-64
2021/11/22 02:01:43;;;;;;;16.70;11.80;;;;;;;5.74;86.57;100136.84;86978;1274;81036;-70
2021/11/22 02:03:49;;;;;;;19.50;11.90;;;;;;;5.72;86.41;100137.73;87000;1298;83308;-70
2021/11/22 02:05:55;;;;;;;18.10;11.50;;;;;;;5.76;86.43;100136.48;86903;1305;98131;-70
2021/11/22 02:08:02;;;;;;;18.20;12.00;;;;;;;5.79;86.31;100137.56;86894;1298;87933;-71
2021/11/22 02:10:11;;;;;;;19.40;11.70;;;;;;;5.80;86.30;100137.82;86989;1298;94974;-71
2021/11/22 02:12:19;;;;;;;19.10;12.20;;;;;;;5.81;86.35;100137.56;86904;1296;80703;-63
2021/11/22 02:14:25;;;;;;;19.20;12.20;;;;;;;5.83;86.43;100136.90;87006;1274;82267;-61
2021/11/22 02:16:32;;;;;;;18.40;12.90;;;;;;;5.86;86.22;100135.95;86918;1301;100150;-62
2021/11/22 02:18:38;;;;;;;17.20;12.20;;;;;;;5.87;86.36;100144.41;86952;1269;89264;-62
2021/11/22 02:20:45;;;;;;;20.80;13.20;;;;;;;5.84;86.26;100146.98;86902;1302;95487;-62
2021/11/22 02:22:53;;;;;;;20.40;13.70;;;;;;;5.83;86.45;100151.77;87032;1276;80441;-69
2021/11/22 02:25:01;;;;;;;23.70;14.40;;;;;;;5.80;86.34;100151.89;86944;1305;80021;-70
2021/11/22 02:27:10;;;;;;;36.00;23.30;;;;;;;5.78;86.58;100158.58;86889;1299;100168;-62
2021/11/22 02:29:16;;;;;;;26.80;18.30;;;;;;;5.79;86.53;100150.98;86929;1296;88587;-64
2021/11/22 02:31:24;;;;;;;22.50;14.70;;;;;;;5.80;86.46;100157.48;86902;1298;94827;-70
2021/11/22 02:33:31;;;;;;;24.30;16.70;;;;;;;5.85;86.51;100157.66;86907;1296;79651;-70
2021/11/22 02:35:50;;;;;;;19.10;13.50;;;;;;;5.82;86.41;100151.99;87035;1273;81703;-70
2021/11/22 02:37:56;;;;;;;21.80;12.90;;;;;;;5.81;86.40;100147.20;86902;1304;100363;-70
2021/11/22 02:40:02;;;;;;;19.70;12.70;;;;;;;5.81;86.45;100149.45;86904;1298;86927;-63
2021/11/22 02:42:22;;;;;;;18.60;11.70;;;;;;;5.82;86.45;100150.83;86934;1298;93789;-62
2021/11/22 02:44:28;;;;;;;18.40;12.60;;;;;;;5.82;86.32;100149.48;86901;1297;80329;-62
2021/11/22 02:46:34;;;;;;;20.50;13.50;;;;;;;5.86;86.37;100150.56;86920;1299;83618;-63
2021/11/22 02:48:41;;;;;;;21.30;13.30;;;;;;;5.87;86.35;100155.65;86924;1299;100724;-63
2021/11/22 02:50:48;;;;;;;21.50;14.90;;;;;;;5.87;86.38;100157.37;86933;1299;87625;-71
2021/11/22 02:52:53;;;;;;;20.80;14.50;;;;;;;5.86;86.33;100162.52;86895;1295;93518;-70
2021/11/22 02:55:00;;;;;;;32.60;24.00;;;;;;;5.85;86.58;100170.29;86912;1296;81295;-71
2021/11/22 02:57:08;;;;;;;34.90;23.00;;;;;;;5.86;86.54;100177.38;86908;1295;81586;-71
2021/11/22 02:59:14;;;;;;;23.60;16.80;;;;;;;5.83;86.39;100180.55;86895;1299;100017;-72
2021/11/22 03:01:20;;;;;;;22.80;16.00;;;;;;;5.79;86.33;100183.64;86913;1299;89293;-64
2021/11/22 03:03:31;;;;;;;20.90;13.70;;;;;;;5.75;86.36;100189.77;86902;1296;94147;-63
2021/11/22 03:05:38;;;;;;;22.70;15.20;;;;;;;5.74;86.20;100197.75;86889;1296;81490;-64
2021/11/22 03:07:45;;;;;;;20.70;13.70;;;;;;;5.71;86.45;100199.48;87078;1272;81763;-63
2021/11/22 03:09:52;;;;;;;23.00;14.20;;;;;;;5.70;86.56;100201.22;87043;1299;97525;-63
2021/11/22 03:12:00;;;;;;;23.00;14.40;;;;;;;5.76;86.44;100206.09;87083;1301;89577;-64
2021/11/22 03:14:07;;;;;;;23.80;14.50;;;;;;;5.82;86.31;100206.73;87061;1299;94756;-71
2021/11/22 03:16:15;;;;;;;19.30;12.80;;;;;;;5.88;86.47;100208.60;86979;1276;78568;-63
2021/11/22 03:18:22;;;;;;;20.80;13.70;;;;;;;5.94;86.22;100212.56;86907;1295;81692;-63
2021/11/22 03:20:28;;;;;;;21.40;14.20;;;;;;;5.98;86.52;100213.25;86965;1299;98314;-71
2021/11/22 03:22:34;;;;;;;21.80;14.90;;;;;;;6.00;86.53;100215.00;86928;1299;89932;-70
2021/11/22 03:24:40;;;;;;;23.30;15.00;;;;;;;5.99;86.53;100213.33;87003;1272;94448;-70
2021/11/22 03:26:48;;;;;;;24.60;15.20;;;;;;;5.96;86.47;100215.81;86979;1299;82504;-71
2021/11/22 03:28:54;;;;;;;24.40;14.30;;;;;;;5.99;86.50;100218.38;87046;1276;81642;-72
2021/11/22 03:31:00;;;;;;;20.10;14.50;;;;;;;6.00;86.41;100221.83;86978;1304;99909;-71
2021/11/22 03:33:08;;;;;;;25.10;14.80;;;;;;;6.01;86.64;100226.83;87000;1299;89627;-70
2021/11/22 03:35:15;;;;;;;19.40;12.90;;;;;;;5.99;86.61;100232.80;86962;1302;94227;-71
2021/11/22 03:37:21;;;;;;;22.50;14.60;;;;;;;6.01;86.60;100234.27;86976;1299;79039;-70
2021/11/22 03:39:28;;;;;;;20.40;13.70;;;;;;;6.03;86.57;100237.52;86983;1303;82208;-70
2021/11/22 03:41:38;;;;;;;20.80;14.10;;;;;;;6.07;86.46;100239.77;86934;1300;99471;-69
2021/11/22 03:43:48;;;;;;;21.40;14.40;;;;;;;6.08;86.53;100238.95;86957;1299;89099;-70
2021/11/22 03:45:55;;;;;;;19.10;12.60;;;;;;;6.07;86.56;100240.92;86939;1299;94589;-70
2021/11/22 03:48:02;;;;;;;24.50;14.20;;;;;;;6.05;86.70;100245.17;87020;1276;82333;-70
2021/11/22 03:50:10;;;;;;;20.30;13.10;;;;;;;6.03;86.44;100243.80;87010;1298;80160;-70
2021/11/22 03:52:16;;;;;;;19.10;12.90;;;;;;;6.00;86.42;100241.60;86982;1299;98384;-63
2021/11/22 03:54:24;;;;;;;20.70;13.30;;;;;;;5.96;86.52;100244.17;86999;1304;88336;-63
2021/11/22 03:56:31;;;;;;;22.50;13.50;;;;;;;5.94;86.36;100252.69;86966;1299;94183;-70
2021/11/22 03:58:39;;;;;;;19.30;13.00;;;;;;;5.94;86.41;100254.77;86934;1299;79763;-71
2021/11/22 04:00:48;;;;;;;23.40;14.30;;;;;;;5.95;86.26;100262.34;86941;1299;81659;-69
2021/11/22 04:02:55;;;;;;;19.80;13.10;;;;;;;5.94;86.36;100259.21;86734;1305;100838;-63
2021/11/22 04:05:01;;;;;;;21.50;13.70;;;;;;;5.92;86.23;100260.19;87053;1282;87912;-63
2021/11/22 04:07:07;;;;;;;20.70;13.70;;;;;;;5.93;86.39;100261.13;86918;1279;95921;-63
2021/11/22 04:09:14;;;;;;;19.80;13.20;;;;;;;5.93;86.51;100261.83;86926;1297;81699;-63
2021/11/22 04:11:20;;;;;;;21.10;13.40;;;;;;;5.95;86.57;100265.79;87000;1298;83200;-71
2021/11/22 04:13:26;;;;;;;22.00;13.30;;;;;;;5.98;86.61;100272.64;87012;1298;98035;-70
2021/11/22 04:15:33;;;;;;;23.00;13.70;;;;;;;5.97;86.54;100276.45;86971;1299;89333;-70
2021/11/22 04:17:39;;;;;;;19.20;12.90;;;;;;;5.98;86.45;100281.75;86995;1304;95630;-62
2021/11/22 04:19:59;;;;;;;18.00;11.80;;;;;;;5.94;86.51;100284.48;87003;1305;82261;-62
2021/11/22 04:22:05;;;;;;;21.30;12.60;;;;;;;5.93;86.68;100289.04;86838;1302;80426;-61
2021/11/22 04:24:12;;;;;;;17.80;11.30;;;;;;;5.95;86.56;100289.55;86881;1301;98566;-67
2021/11/22 04:26:21;;;;;;;19.10;11.70;;;;;;;5.96;86.37;100291.95;86864;1302;89142;-62
2021/11/22 04:28:29;;;;;;;19.60;12.40;;;;;;;5.97;86.35;100292.73;86728;1301;95348;-62
2021/11/22 04:30:36;;;;;;;19.30;12.20;;;;;;;5.92;86.39;100297.76;86819;1305;81573;-70
2021/11/22 04:32:43;;;;;;;18.70;11.90;;;;;;;5.91;86.28;100300.33;86707;1296;79632;-70
2021/11/22 04:34:52;;;;;;;18.70;11.60;;;;;;;5.92;86.37;100303.08;86838;1269;98060;-69
2021/11/22 04:36:58;;;;;;;18.00;12.60;;;;;;;5.95;86.37;100303.85;86918;1302;88136;-70
2021/11/22 04:39:07;;;;;;;19.50;12.40;;;;;;;5.95;86.31;100301.10;86806;1301;95706;-71
2021/11/22 04:41:17;;;;;;;17.40;11.80;;;;;;;5.92;86.35;100299.80;86868;1303;82700;-70
2021/11/22 04:43:28;;;;;;;17.70;13.00;;;;;;;5.87;86.22;100303.38;86919;1305;80837;-71
2021/11/22 04:45:34;;;;;;;18.10;12.30;;;;;;;5.82;86.44;100307.35;86896;1304;100280;-70
2021/11/22 04:47:41;;;;;;;20.10;12.70;;;;;;;5.80;86.55;100309.48;86884;1302;87579;-69
2021/11/22 04:52:01;;;;;;;16.50;11.40;;;;;;;5.79;86.15;100312.17;86959;1299;80028;-70
2021/11/22 04:54:08;;;;;;;17.20;11.80;;;;;;;5.73;86.21;100316.86;87096;1282;80535;-70
2021/11/22 04:56:14;;;;;;;18.90;12.30;;;;;;;5.73;86.28;100316.88;87107;1299;99688;-70
2021/11/22 04:58:20;;;;;;;18.90;11.70;;;;;;;5.71;86.30;100316.75;86991;1304;86356;-71
2021/11/22 05:00:28;;;;;;;19.00;11.60;;;;;;;5.65;86.26;100322.95;87066;1293;95956;-71
2021/11/22 05:02:34;;;;;;;15.90;10.90;;;;;;;5.65;86.30;100325.41;87103;1301;79781;-71
2021/11/22 05:04:43;;;;;;;18.70;11.90;;;;;;;5.63;86.30;100327.52;87121;1299;81348;-63
2021/11/22 05:06:49;;;;;;;17.50;11.70;;;;;;;5.60;86.28;100326.98;87096;1298;99097;-63
2021/11/22 05:08:58;;;;;;;18.50;11.80;;;;;;;5.63;86.42;100330.79;87096;1297;87803;-63
2021/11/22 05:11:07;;;;;;;16.50;11.90;;;;;;;5.62;86.52;100334.80;87062;1293;95791;-64
2021/11/22 05:13:15;;;;;;;16.70;11.50;;;;;;;5.64;86.60;100340.34;87101;1299;82233;-70
2021/11/22 05:15:24;;;;;;;19.40;11.20;;;;;;;5.70;86.52;100342.61;87118;1301;83191;-70
2021/11/22 05:17:34;;;;;;;17.60;12.20;;;;;;;5.70;86.62;100343.45;87110;1298;98539;-70
2021/11/22 05:19:40;;;;;;;21.00;12.20;;;;;;;5.71;86.73;100345.13;87107;1302;88303;-70
2021/11/22 05:21:49;;;;;;;16.60;11.60;;;;;;;5.70;86.58;100354.03;87198;1273;94968;-64
2021/11/22 05:23:55;;;;;;;18.10;12.40;;;;;;;5.70;86.56;100355.84;86972;1275;80338;-63
2021/11/22 05:26:01;;;;;;;19.40;11.80;;;;;;;5.71;86.71;100357.80;86938;1299;80872;-63
2021/11/22 05:28:10;;;;;;;20.90;12.60;;;;;;;5.72;86.62;100357.86;86893;1300;99558;-72
2021/11/22 05:30:25;;;;;;;16.50;11.00;;;;;;;5.73;86.57;100359.76;86891;1301;87393;-70
2021/11/22 05:32:31;;;;;;;16.80;11.20;;;;;;;5.77;86.73;100365.02;86869;1305;95168;-63
2021/11/22 05:34:37;;;;;;;19.90;12.80;;;;;;;5.80;86.70;100368.36;86890;1302;81479;-63
2021/11/22 05:36:44;;;;;;;19.00;11.20;;;;;;;5.78;86.76;100370.80;86887;1302;80190;-63
2021/11/22 05:38:53;;;;;;;16.80;11.60;;;;;;;5.76;86.70;100373.91;86871;1299;100659;-71
2021/11/22 05:40:58;;;;;;;16.40;12.00;;;;;;;5.76;86.52;100372.43;86875;1296;88266;-71
2021/11/22 05:43:05;;;;;;;19.40;13.00;;;;;;;5.77;86.61;100370.92;86881;1301;93901;-70
2021/11/22 05:45:12;;;;;;;20.10;13.20;;;;;;;5.77;86.40;100375.44;86874;1301;81139;-70
2021/11/22 05:47:19;;;;;;;18.30;12.60;;;;;;;5.73;86.48;100373.17;86895;1301;83150;-69
2021/11/22 05:49:26;;;;;;;18.30;11.40;;;;;;;5.72;86.65;100381.66;86903;1300;98619;-70
2021/11/22 05:51:35;;;;;;;19.40;12.90;;;;;;;5.68;86.67;100384.20;86902;1302;87092;-70
2021/11/22 05:53:43;;;;;;;15.20;10.70;;;;;;;5.68;86.54;100386.15;86877;1302;92846;-69
2021/11/22 05:55:51;;;;;;;15.70;10.80;;;;;;;5.68;86.74;100391.89;87049;1273;80771;-69
2021/11/22 05:57:57;;;;;;;15.90;11.90;;;;;;;5.70;86.47;100389.23;87082;1275;82635;-69
2021/11/22 06:00:10;;;;;;;18.20;12.10;;;;;;;5.67;86.41;100390.20;87001;1304;100307;-70
2021/11/22 06:02:16;;;;;;;16.00;10.70;;;;;;;5.65;86.28;100395.91;87007;1299;87214;-72
2021/11/22 06:04:23;;;;;;;16.00;10.10;;;;;;;5.62;86.56;100399.81;86968;1297;93880;-71
2021/11/22 06:06:32;;;;;;;15.80;9.90;;;;;;;5.67;86.50;100400.21;86926;1304;81384;-70
2021/11/22 06:08:39;;;;;;;16.00;11.10;;;;;;;5.69;86.51;100401.94;87101;1275;80308;-70
2021/11/22 06:10:49;;;;;;;13.90;10.20;;;;;;;5.68;86.43;100399.02;87032;1297;97826;-71
2021/11/22 06:12:55;;;;;;;14.40;9.70;;;;;;;5.64;86.51;100401.64;84946;1302;2929885;-71
2021/11/22 06:15:06;;;;;;;12.30;8.80;;;;;;;5.65;86.56;100408.11;87079;1299;93567;-73
2021/11/22 06:17:13;;;;;;;16.50;10.10;;;;;;;5.68;86.48;100410.61;87033;1304;80243;-80
2021/11/22 06:19:24;;;;;;;15.80;9.70;;;;;;;5.67;86.48;100416.52;87069;1300;80886;-82
2021/11/22 06:21:31;;;;;;;14.90;9.90;;;;;;;5.70;86.42;100416.91;87031;1304;99761;-79
2021/11/22 06:23:41;;;;;;;13.20;9.00;;;;;;;5.74;86.25;100419.70;87043;1304;88957;-61
2021/11/22 06:25:47;;;;;;;14.80;9.70;;;;;;;5.78;86.34;100419.77;87020;1299;95098;-61
2021/11/22 06:27:57;;;;;;;15.60;9.00;;;;;;;5.74;86.44;100419.86;87030;1304;78893;-71
2021/11/22 06:30:07;;;;;;;15.50;9.40;;;;;;;5.71;86.35;100420.72;87041;1302;82673;-76
2021/11/22 06:32:13;;;;;;;13.30;9.40;;;;;;;5.74;86.31;100422.91;87044;1305;99829;-70
2021/11/22 06:34:20;;;;;;;12.80;9.00;;;;;;;5.75;86.37;100428.16;87037;1304;87033;-63
2021/11/22 06:36:26;;;;;;;15.00;9.30;;;;;;;5.80;86.54;100436.22;87015;1304;94788;-63
2021/11/22 06:38:33;;;;;;;17.60;9.30;;;;;;;5.85;86.54;100442.45;86834;1299;81928;-63
2021/11/22 06:40:41;;;;;;;14.10;8.40;;;;;;;5.93;86.49;100447.22;87047;1298;83262;-62
2021/11/22 06:42:48;;;;;;;63.80;33.80;;;;;;;5.99;86.66;100451.05;87008;1305;97557;-62
2021/11/22 06:44:56;;;;;;;128.80;45.90;;;;;;;6.04;86.52;100455.87;86998;1305;89479;-62
2021/11/22 06:47:05;;;;;;;199.50;70.70;;;;;;;6.01;86.55;100457.29;86876;1305;95557;-62
2021/11/22 06:49:13;;;;;;;221.80;78.30;;;;;;;6.00;86.43;100458.27;87023;1305;82172;-76
2021/11/22 06:51:21;;;;;;;490.60;202.50;;;;;;;6.03;86.44;100460.85;86867;1303;81977;-76
2021/11/22 06:53:28;;;;;;;588.50;276.10;;;;;;;6.06;86.49;100463.41;87066;1301;97985;-61
2021/11/22 06:55:36;;;;;;;134.70;57.60;;;;;;;6.09;86.45;100464.82;87003;1303;86901;-60
2021/11/22 06:57:43;;;;;;;149.00;65.90;;;;;;;6.12;86.49;100467.27;86821;1305;94855;-60
2021/11/22 06:59:52;;;;;;;142.00;68.70;;;;;;;6.17;86.41;100471.52;87013;1304;81523;-61
2021/11/22 07:01:59;;;;;;;146.40;75.50;;;;;;;6.20;86.32;100469.63;87019;1304;82942;-61
2021/11/22 07:04:06;;;;;;;75.20;41.20;;;;;;;6.22;86.35;100472.39;86991;1303;97971;-74
2021/11/22 07:06:13;;;;;;;87.10;48.90;;;;;;;6.24;86.33;100477.88;87042;1304;88193;-73
2021/11/22 07:08:21;;;;;;;229.60;127.60;;;;;;;6.22;86.28;100480.67;86981;1301;96063;-62
2021/11/22 07:10:27;;;;;;;72.30;42.40;;;;;;;6.21;86.38;100485.19;87009;1304;81583;-61
2021/11/22 07:12:33;;;;;;;101.90;60.40;;;;;;;6.22;86.31;100485.27;87057;1298;82449;-61
2021/11/22 07:14:43;;;;;;;27.50;17.30;;;;;;;6.18;86.27;100491.27;87047;1299;99014;-63
2021/11/22 07:16:52;;;;;;;17.10;11.90;;;;;;;6.22;86.30;100493.69;87017;1305;88067;-62
2021/11/22 07:19:01;;;;;;;13.00;9.40;;;;;;;6.29;86.13;100496.16;86993;1304;93485;-73
2021/11/22 07:21:07;;;;;;;29.10;21.50;;;;;;;6.33;86.11;100499.54;87012;1302;80434;-74
2021/11/22 07:23:21;;;;;;;23.40;16.80;;;;;;;6.33;86.07;100499.11;87038;1304;81987;-73
2021/11/22 07:25:29;;;;;;;14.50;10.30;;;;;;;6.36;85.93;100501.00;87007;1300;98585;-74
2021/11/22 07:27:36;;;;;;;14.70;10.80;;;;;;;6.36;85.99;100506.00;87047;1297;87656;-74
2021/11/22 07:29:43;;;;;;;21.50;15.90;;;;;;;6.33;86.12;100502.39;87002;1299;95610;-73
2021/11/22 07:31:50;;;;;;;35.20;28.10;;;;;;;6.32;86.05;100503.67;87017;1305;82472;-70
2021/11/22 07:33:56;;;;;;;30.30;24.60;;;;;;;6.35;86.11;100504.65;86968;1301;81853;-74
2021/11/22 07:36:02;;;;;;;18.70;14.50;;;;;;;6.37;86.05;100505.16;86998;1299;99371;-73
2021/11/22 07:38:10;;;;;;;13.10;10.10;;;;;;;6.45;85.95;100505.61;87042;1294;87481;-62
2021/11/22 07:40:21;;;;;;;16.90;11.20;;;;;;;6.47;85.79;100502.47;86843;1297;93754;-62
2021/11/22 07:42:29;;;;;;;16.10;11.70;;;;;;;6.58;85.86;100505.30;87025;1296;79978;-62
2021/11/22 07:44:36;;;;;;;19.90;14.90;;;;;;;6.64;86.15;100512.88;87047;1301;80382;-65
2021/11/22 07:46:46;;;;;;;27.90;20.20;;;;;;;6.71;86.18;100509.98;87018;1295;98069;-63
2021/11/22 07:48:53;;;;;;;13.40;10.10;;;;;;;6.80;86.01;100513.51;87028;1294;88935;-63
2021/11/22 07:51:02;;;;;;;11.00;8.70;;;;;;;6.84;85.60;100513.55;87020;1305;95220;-63
2021/11/22 07:53:10;;;;;;;43.10;31.40;;;;;;;6.84;85.51;100517.36;87049;1301;81405;-63
2021/11/22 07:55:17;;;;;;;35.00;26.20;;;;;;;6.84;85.43;100524.86;87099;1298;80909;-62
2021/11/22 07:57:24;;;;;;;14.00;11.20;;;;;;;6.89;85.43;100528.78;87004;1300;98197;-63
2021/11/22 07:59:34;;;;;;;15.30;12.20;;;;;;;6.95;85.38;100532.43;87059;1299;86094;-72
2021/11/22 08:01:41;;;;;;;40.20;29.30;;;;;;;7.01;85.31;100535.06;87055;1305;96007;-63
2021/11/22 08:03:48;;;;;;;24.40;18.20;;;;;;;7.04;85.23;100541.70;87028;1301;82746;-71
2021/11/22 08:05:57;;;;;;;23.50;18.20;;;;;;;7.01;85.22;100540.92;87043;1297;82090;-70
2021/11/22 08:08:05;;;;;;;19.70;15.10;;;;;;;6.97;85.13;100545.84;87037;1299;98917;-72
2021/11/22 08:10:23;;;;;;;23.40;18.10;;;;;;;6.93;85.13;100552.33;87017;1305;88882;-73
2021/11/22 08:12:32;;;;;;;28.40;23.70;;;;;;;6.91;85.17;100555.95;87017;1303;95669;-72
2021/11/22 08:14:40;;;;;;;24.40;20.40;;;;;;;6.88;85.13;100556.32;87039;1302;79156;-72
2021/11/22 08:16:49;;;;;;;20.10;15.90;;;;;;;6.91;85.19;100561.69;87044;1304;82748;-73
2021/11/22 08:18:56;;;;;;;21.00;16.10;;;;;;;6.92;85.22;100562.63;87007;1300;99300;-72
2021/11/22 08:21:05;;;;;;;13.60;12.00;;;;;;;6.86;85.13;100566.36;87032;1300;88755;-72
2021/11/22 08:23:11;;;;;;;17.40;13.60;;;;;;;6.86;85.11;100574.08;87055;1286;92954;-71
2021/11/22 08:25:19;;;;;;;21.80;17.10;;;;;;;6.87;85.03;100572.20;87033;1304;78895;-72
2021/11/22 08:27:29;;;;;;;35.20;27.00;;;;;;;6.89;85.03;100577.52;87048;1302;80170;-63
2021/11/22 08:29:35;;;;;;;53.10;41.90;;;;;;;6.89;84.90;100582.86;87037;1300;99083;-71
2021/11/22 08:31:42;;;;;;;66.90;46.60;;;;;;;6.93;84.96;100581.40;87026;1302;88904;-71
2021/11/22 08:33:49;;;;;;;31.70;24.00;;;;;;;6.96;84.82;100581.58;86958;1301;94252;-72
2021/11/22 08:35:56;;;;;;;55.60;39.50;;;;;;;7.00;84.85;100582.02;87020;1304;79255;-73
2021/11/22 08:38:03;;;;;;;41.20;30.90;;;;;;;7.07;84.72;100586.69;87099;1297;83467;-62
2021/11/22 08:40:15;;;;;;;24.00;19.50;;;;;;;7.11;84.91;100587.64;87063;1299;98755;-63
2021/11/22 08:42:22;;;;;;;39.30;30.80;;;;;;;7.16;84.76;100587.66;87046;1302;88785;-62
2021/11/22 08:44:29;;;;;;;32.90;26.90;;;;;;;7.17;84.84;100588.84;87016;1298;95705;-74
2021/11/22 08:46:38;;;;;;;37.60;32.40;;;;;;;7.24;84.69;100589.34;87016;1305;77941;-73
2021/11/22 08:48:44;;;;;;;24.90;21.30;;;;;;;7.32;84.69;100592.61;87031;1305;80645;-73
2021/11/22 08:50:51;;;;;;;22.60;18.20;;;;;;;7.34;84.63;100596.31;87049;1297;100195;-73
2021/11/22 08:52:58;;;;;;;17.30;12.50;;;;;;;7.42;84.62;100595.59;87063;1299;87569;-63
2021/11/22 08:55:09;;;;;;;24.70;19.90;;;;;;;7.57;84.51;100593.65;87107;1299;94304;-63
2021/11/22 08:57:19;;;;;;;18.80;13.90;;;;;;;7.65;84.53;100593.06;87016;1299;82105;-63
2021/11/22 08:59:29;;;;;;;30.70;22.60;;;;;;;7.76;84.25;100594.21;87039;1301;82143;-63
2021/11/22 09:01:36;;;;;;;20.70;15.40;;;;;;;7.74;84.16;100594.61;87021;1299;99607;-62
2021/11/22 09:03:42;;;;;;;30.90;25.70;;;;;;;7.72;83.98;100598.38;87017;1304;88825;-62
2021/11/22 09:05:50;;;;;;;19.40;14.50;;;;;;;7.69;83.86;100601.06;87026;1299;95179;-61
2021/11/22 09:07:59;;;;;;;14.80;13.20;;;;;;;7.64;83.89;100600.95;87049;1299;78776;-62
2021/11/22 09:10:07;;;;;;;15.80;11.70;;;;;;;7.67;83.83;100600.09;87069;1294;80625;-63
2021/11/22 09:12:14;;;;;;;15.30;12.40;;;;;;;7.76;83.76;100606.95;87036;1301;99808;-62
2021/11/22 09:14:20;;;;;;;33.10;27.90;;;;;;;7.79;83.69;100608.77;87017;1298;89379;-74
2021/11/22 09:16:29;;;;;;;20.00;16.50;;;;;;;7.73;83.60;100610.91;87053;1293;92274;-64
2021/11/22 09:18:37;;;;;;;18.80;15.90;;;;;;;7.71;83.47;100615.17;87024;1304;82711;-62
2021/11/22 09:20:43;;;;;;;26.20;20.90;;;;;;;7.67;83.29;100617.90;86875;1302;83226;-63
2021/11/22 09:22:56;;;;;;;18.20;16.00;;;;;;;7.59;83.24;100619.35;87007;1299;99053;-62
2021/11/22 09:25:05;;;;;;;14.90;13.00;;;;;;;7.56;83.34;100621.85;87038;1299;88721;-72
2021/11/22 09:27:12;;;;;;;34.30;27.90;;;;;;;7.52;83.23;100623.35;87006;1304;94084;-72
2021/11/22 09:29:18;;;;;;;22.40;18.20;;;;;;;7.48;83.25;100622.86;87012;1304;78747;-72
2021/11/22 09:31:28;;;;;;;19.40;16.30;;;;;;;7.39;83.32;100621.19;87043;1299;81522;-72
2021/11/22 09:33:36;;;;;;;15.10;13.40;;;;;;;7.34;83.26;100623.55;87028;1294;97705;-62
2021/11/22 09:35:44;;;;;;;32.60;28.20;;;;;;;7.30;83.38;100622.75;87033;1299;88231;-62
2021/11/22 09:37:58;;;;;;;28.20;23.80;;;;;;;7.28;83.40;100624.73;87088;1297;92304;-61
2021/11/22 09:40:08;;;;;;;27.50;19.60;;;;;;;7.27;83.39;100626.10;87034;1295;80334;-73
2021/11/22 09:42:15;;;;;;;29.70;21.10;;;;;;;7.17;83.33;100627.16;87010;1294;82309;-74
2021/11/22 09:44:23;;;;;;;33.70;26.80;;;;;;;7.09;83.43;100631.05;87011;1299;98956;-74
2021/11/22 09:46:29;;;;;;;23.60;18.50;;;;;;;7.05;83.48;100632.20;87019;1293;88721;-73
2021/11/22 09:48:36;;;;;;;28.00;20.00;;;;;;;7.02;83.46;100633.95;87006;1294;94158;-62